Time;durP1;ratioP1;P1;durP2;ratioP2;P2;SDS_P1;SDS_P2;PMS_P1;PMS_P2;Temp;Humidity;BMP_temperature;BMP_pressure;BME280_temperature;BME280_humidity;BME280_pressure;Samples;Min_cycle;Max_cycle;Signal;HPM_P1;HPM_P2
2023/07/07 00:01:47;;;;;;;8.48;3.50;;;;;;;;;;4891160;29;20055;-62
2023/07/07 00:04:13;;;;;;;9.27;3.53;;;;;;;;;;4891341;29;20035;-62
2023/07/07 00:06:39;;;;;;;6.82;3.00;;;;;;;;;;4892013;29;20079;-62
2023/07/07 00:09:05;;;;;;;7.65;3.08;;;;;;;;;;4878157;29;20050;-62
2023/07/07 00:11:32;;;;;;;6.78;2.72;;;;;;;;;;4894968;29;20039;-63
2023/07/07 00:13:58;;;;;;;6.75;3.17;;;;;;;;;;4895597;29;20039;-63
2023/07/07 00:16:27;;;;;;;7.03;3.20;;;;;;;;;;4895049;29;20036;-63
2023/07/07 00:18:56;;;;;;;5.53;2.97;;;;;;;;;;4894518;29;20715;-63
2023/07/07 00:21:24;;;;;;;6.60;2.95;;;;;;;;;;4894945;29;20385;-63
2023/07/07 00:23:55;;;;;;;9.20;3.38;;;;;;;;;;4891741;29;20120;-63
2023/07/07 00:26:21;;;;;;;5.70;3.40;;;;;;;;;;4894213;29;20060;-63
2023/07/07 00:28:48;;;;;;;6.65;2.97;;;;;;;;;;4894161;29;20036;-63
2023/07/07 00:31:14;;;;;;;10.40;3.53;;;;;;;;;;4894778;29;20115;-63
2023/07/07 00:33:40;;;;;;;7.45;3.08;;;;;;;;;;4895372;29;20484;-63
2023/07/07 00:36:06;;;;;;;5.82;3.22;;;;;;;;;;4895150;29;20664;-63
2023/07/07 00:38:33;;;;;;;8.60;3.60;;;;;;;;;;4895606;29;20040;-63
2023/07/07 00:41:00;;;;;;;7.63;3.50;;;;;;;;;;4894788;29;21844;-63
2023/07/07 00:43:26;;;;;;;8.50;3.80;;;;;;;;;;4894188;29;21416;-63
2023/07/07 00:45:52;;;;;;;6.03;3.20;;;;;;;;;;4895627;29;20083;-63
2023/07/07 00:48:23;;;;;;;7.22;3.58;;;;;;;;;;4895681;29;20047;-63
2023/07/07 00:50:51;;;;;;;5.40;3.17;;;;;;;;;;4894587;29;20091;-63
2023/07/07 00:53:18;;;;;;;6.43;3.30;;;;;;;;;;4894812;29;20036;-62
2023/07/07 00:55:46;;;;;;;7.47;3.80;;;;;;;;;;4895175;29;20051;-63
2023/07/07 00:58:14;;;;;;;6.07;3.53;;;;;;;;;;4895243;29;20039;-62
2023/07/07 01:00:42;;;;;;;5.55;3.67;;;;;;;;;;4894329;29;20031;-63
2023/07/07 01:03:11;;;;;;;9.63;3.45;;;;;;;;;;4894079;29;22176;-63
2023/07/07 01:05:37;;;;;;;8.48;3.97;;;;;;;;;;4894335;29;20043;-62
2023/07/07 01:08:06;;;;;;;7.22;3.65;;;;;;;;;;4895409;29;20147;-63
2023/07/07 01:10:32;;;;;;;8.65;4.38;;;;;;;;;;4894719;29;20039;-60
2023/07/07 01:12:58;;;;;;;7.28;3.90;;;;;;;;;;4895050;29;20039;-60
2023/07/07 01:15:27;;;;;;;9.07;4.78;;;;;;;;;;4894493;29;20151;-60
2023/07/07 01:17:53;;;;;;;7.47;3.95;;;;;;;;;;4894205;29;20035;-60
2023/07/07 01:20:34;;;;;;;6.88;3.15;;;;;;;;;;4892150;29;20047;-60
2023/07/07 01:23:19;;;;;;;8.77;3.95;;;;;;;;;;4894634;29;20047;-60
2023/07/07 01:26:04;;;;;;;8.63;3.80;;;;;;;;;;4893201;29;20035;-60
2023/07/07 01:28:39;;;;;;;8.18;4.10;;;;;;;;;;4894259;29;20171;-60
2023/07/07 01:31:17;;;;;;;9.45;3.65;;;;;;;;;;4894105;29;20039;-60
2023/07/07 01:33:45;;;;;;;8.00;3.95;;;;;;;;;;4893928;29;20042;-60
2023/07/07 01:36:11;;;;;;;8.65;4.00;;;;;;;;;;4893465;29;21986;-60
2023/07/07 01:38:37;;;;;;;7.70;3.88;;;;;;;;;;4893954;29;20602;-60
2023/07/07 01:41:08;;;;;;;6.97;3.90;;;;;;;;;;4894082;29;20768;-60
2023/07/07 01:43:42;;;;;;;8.73;3.90;;;;;;;;;;4893170;29;20952;-60
2023/07/07 01:46:08;;;;;;;5.88;3.63;;;;;;;;;;4893898;29;20031;-60
2023/07/07 01:48:42;;;;;;;6.80;3.80;;;;;;;;;;4893559;29;20024;-60
2023/07/07 01:51:10;;;;;;;6.53;3.78;;;;;;;;;;4894552;29;20090;-60
2023/07/07 01:53:37;;;;;;;9.43;3.45;;;;;;;;;;4892363;29;20035;-60
2023/07/07 01:56:03;;;;;;;5.72;3.40;;;;;;;;;;4893319;29;20028;-60
2023/07/07 01:58:31;;;;;;;6.22;3.50;;;;;;;;;;4892647;29;20099;-60
2023/07/07 02:00:58;;;;;;;9.02;3.70;;;;;;;;;;4892987;29;20031;-60
2023/07/07 02:03:24;;;;;;;8.00;3.63;;;;;;;;;;4892073;29;21791;-60
2023/07/07 02:05:50;;;;;;;6.35;3.80;;;;;;;;;;4894051;29;20745;-60
2023/07/07 02:08:16;;;;;;;7.07;3.78;;;;;;;;;;4892779;29;20047;-60
2023/07/07 02:10:42;;;;;;;7.50;3.92;;;;;;;;;;4893580;29;20387;-60
2023/07/07 02:13:08;;;;;;;7.30;4.60;;;;;;;;;;4892398;29;20170;-65
2023/07/07 02:15:34;;;;;;;6.65;4.35;;;;;;;;;;4891868;29;20039;-66
2023/07/07 02:18:01;;;;;;;6.25;4.35;;;;;;;;;;4893267;29;20145;-65
2023/07/07 02:20:27;;;;;;;6.22;3.72;;;;;;;;;;4893764;29;20050;-65
2023/07/07 02:22:53;;;;;;;6.45;4.07;;;;;;;;;;4892211;29;20036;-66
2023/07/07 02:25:19;;;;;;;11.13;4.00;;;;;;;;;;4892973;29;20047;-66
2023/07/07 02:27:45;;;;;;;7.63;3.83;;;;;;;;;;4893033;29;20048;-66
2023/07/07 02:30:12;;;;;;;8.07;4.43;;;;;;;;;;4891493;29;20028;-66
2023/07/07 02:32:38;;;;;;;6.53;4.28;;;;;;;;;;4892418;29;20051;-66
2023/07/07 02:35:06;;;;;;;7.72;4.32;;;;;;;;;;4891967;29;20040;-66
2023/07/07 02:37:32;;;;;;;11.52;4.70;;;;;;;;;;4892105;29;20146;-66
2023/07/07 02:39:58;;;;;;;9.30;4.57;;;;;;;;;;4893084;29;20232;-65
2023/07/07 02:42:24;;;;;;;6.88;3.80;;;;;;;;;;4892245;29;20416;-66
2023/07/07 02:44:50;;;;;;;7.15;4.53;;;;;;;;;;4892478;29;20050;-66
2023/07/07 02:47:17;;;;;;;6.93;4.00;;;;;;;;;;4892020;29;20546;-66
2023/07/07 02:49:43;;;;;;;7.50;3.78;;;;;;;;;;4892234;29;20043;-66
2023/07/07 02:52:09;;;;;;;7.05;3.10;;;;;;;;;;4893121;29;20054;-66
2023/07/07 02:54:35;;;;;;;6.97;3.83;;;;;;;;;;4892332;29;20032;-66
2023/07/07 02:57:02;;;;;;;8.05;4.25;;;;;;;;;;4892157;29;20059;-65
2023/07/07 02:59:28;;;;;;;7.18;4.30;;;;;;;;;;4892940;29;20044;-66
2023/07/07 03:01:54;;;;;;;10.77;4.15;;;;;;;;;;4892064;29;20046;-66
2023/07/07 03:04:24;;;;;;;8.80;4.35;;;;;;;;;;4892186;29;21653;-66
2023/07/07 03:06:50;;;;;;;11.63;5.18;;;;;;;;;;4891132;29;20032;-66
2023/07/07 03:09:16;;;;;;;6.82;4.50;;;;;;;;;;4891938;29;20071;-66
2023/07/07 03:11:42;;;;;;;9.48;5.43;;;;;;;;;;4892314;29;20039;-66
2023/07/07 03:14:08;;;;;;;8.77;5.20;;;;;;;;;;4892292;29;20099;-66
2023/07/07 03:16:34;;;;;;;11.10;5.60;;;;;;;;;;4892102;29;20044;-66
2023/07/07 03:19:04;;;;;;;12.50;6.18;;;;;;;;;;4890586;29;20055;-66
2023/07/07 03:21:31;;;;;;;11.10;6.40;;;;;;;;;;4891499;29;20060;-66
2023/07/07 03:23:57;;;;;;;10.05;6.75;;;;;;;;;;4891462;29;21742;-66
2023/07/07 03:26:26;;;;;;;11.10;7.03;;;;;;;;;;4890756;29;20043;-65
2023/07/07 03:28:52;;;;;;;9.43;6.05;;;;;;;;;;4892978;29;20162;-66
2023/07/07 03:31:23;;;;;;;14.05;6.40;;;;;;;;;;4891791;29;20040;-65
2023/07/07 03:33:50;;;;;;;11.05;7.32;;;;;;;;;;4890726;29;20039;-65
2023/07/07 03:36:17;;;;;;;13.77;8.07;;;;;;;;;;4892225;29;20031;-66
2023/07/07 03:38:43;;;;;;;11.85;7.93;;;;;;;;;;4892193;29;20066;-66
2023/07/07 03:41:14;;;;;;;12.82;8.10;;;;;;;;;;4891888;29;20643;-66
2023/07/07 03:43:45;;;;;;;10.63;7.60;;;;;;;;;;4898685;29;20075;-65
2023/07/07 03:46:18;;;;;;;10.63;6.90;;;;;;;;;;4898376;29;20770;-66
2023/07/07 03:48:45;;;;;;;9.82;6.65;;;;;;;;;;4898096;29;20039;-66
2023/07/07 03:51:12;;;;;;;9.55;7.22;;;;;;;;;;4897978;29;20125;-66
2023/07/07 03:53:38;;;;;;;12.38;8.00;;;;;;;;;;4898147;29;20039;-66
2023/07/07 03:56:05;;;;;;;10.93;7.65;;;;;;;;;;4898278;29;20047;-65
2023/07/07 03:58:31;;;;;;;14.27;8.38;;;;;;;;;;4898932;29;20043;-66
2023/07/07 04:01:01;;;;;;;11.23;8.43;;;;;;;;;;4899474;29;20039;-66
2023/07/07 04:03:27;;;;;;;10.70;7.75;;;;;;;;;;4898837;29;20039;-66
2023/07/07 04:05:54;;;;;;;11.82;8.13;;;;;;;;;;4897797;29;20915;-66
2023/07/07 04:08:24;;;;;;;11.68;8.48;;;;;;;;;;4898911;29;20035;-66
2023/07/07 04:11:00;;;;;;;12.80;8.68;;;;;;;;;;4898140;29;20535;-66
2023/07/07 04:13:27;;;;;;;14.68;9.45;;;;;;;;;;4897668;29;20570;-66
2023/07/07 04:16:00;;;;;;;13.80;8.27;;;;;;;;;;4898491;29;20063;-65
2023/07/07 04:18:27;;;;;;;14.48;8.38;;;;;;;;;;4898483;29;20039;-66
2023/07/07 04:20:53;;;;;;;19.65;9.02;;;;;;;;;;4898333;29;20040;-66
2023/07/07 04:23:19;;;;;;;13.10;9.30;;;;;;;;;;4897664;29;20036;-66
2023/07/07 04:25:45;;;;;;;14.60;8.73;;;;;;;;;;4897210;29;20035;-67
2023/07/07 04:28:11;;;;;;;12.30;8.32;;;;;;;;;;4897372;29;20087;-67
2023/07/07 04:30:38;;;;;;;12.88;8.73;;;;;;;;;;4897467;29;20036;-65
2023/07/07 04:33:04;;;;;;;12.02;8.43;;;;;;;;;;4896656;29;20127;-66
2023/07/07 04:35:30;;;;;;;14.40;9.05;;;;;;;;;;4897734;29;20062;-66
2023/07/07 04:37:56;;;;;;;11.80;8.45;;;;;;;;;;4898102;29;20402;-66
2023/07/07 04:40:22;;;;;;;13.52;8.63;;;;;;;;;;4896222;29;20668;-66
2023/07/07 04:42:48;;;;;;;15.90;8.75;;;;;;;;;;4897769;29;21876;-66
2023/07/07 04:45:14;;;;;;;12.27;8.60;;;;;;;;;;4898179;29;20871;-66
2023/07/07 04:47:40;;;;;;;12.23;8.90;;;;;;;;;;4898395;29;20415;-65
2023/07/07 04:50:07;;;;;;;14.02;8.35;;;;;;;;;;4898278;29;20032;-66
2023/07/07 04:52:33;;;;;;;14.05;8.68;;;;;;;;;;4897894;29;20039;-65
2023/07/07 04:54:59;;;;;;;12.00;8.77;;;;;;;;;;4893511;29;20036;-66
2023/07/07 04:57:25;;;;;;;12.77;8.93;;;;;;;;;;4894524;29;20396;-66
2023/07/07 04:59:51;;;;;;;18.30;9.52;;;;;;;;;;4893612;29;20379;-66
2023/07/07 05:02:22;;;;;;;12.48;8.45;;;;;;;;;;4893300;29;20036;-66
2023/07/07 05:04:48;;;;;;;13.80;9.48;;;;;;;;;;4893984;29;20071;-66
2023/07/07 05:07:14;;;;;;;12.32;8.80;;;;;;;;;;4892394;29;20039;-66
2023/07/07 05:09:40;;;;;;;10.95;8.57;;;;;;;;;;4893393;29;21869;-66
2023/07/07 05:12:08;;;;;;;13.20;9.15;;;;;;;;;;4893180;29;20052;-66
2023/07/07 05:14:34;;;;;;;14.75;9.65;;;;;;;;;;4893059;29;20039;-66
2023/07/07 05:17:01;;;;;;;13.65;9.35;;;;;;;;;;4894222;29;20032;-66
2023/07/07 05:19:27;;;;;;;12.80;9.35;;;;;;;;;;4879030;29;20087;-66
2023/07/07 05:21:53;;;;;;;17.27;8.98;;;;;;;;;;4892925;29;20082;-66
2023/07/07 05:24:19;;;;;;;13.93;9.20;;;;;;;;;;4890933;29;20084;-66
2023/07/07 05:26:45;;;;;;;15.27;9.63;;;;;;;;;;4890430;29;20075;-66
2023/07/07 05:29:11;;;;;;;18.33;9.48;;;;;;;;;;4894009;29;20099;-66
2023/07/07 05:31:37;;;;;;;11.77;9.10;;;;;;;;;;4893155;29;20055;-66
2023/07/07 05:34:03;;;;;;;14.88;9.27;;;;;;;;;;4892627;29;20118;-65
2023/07/07 05:36:29;;;;;;;13.48;8.93;;;;;;;;;;4892280;29;20063;-66
2023/07/07 05:38:55;;;;;;;16.13;9.80;;;;;;;;;;4893138;29;20047;-65
2023/07/07 05:41:21;;;;;;;13.70;9.05;;;;;;;;;;4892751;29;20043;-66
2023/07/07 05:43:48;;;;;;;11.60;8.95;;;;;;;;;;4892658;29;20047;-66
2023/07/07 05:46:15;;;;;;;13.52;8.88;;;;;;;;;;4891191;29;20039;-65
2023/07/07 05:48:42;;;;;;;13.50;9.70;;;;;;;;;;4892989;29;20047;-66
2023/07/07 05:51:09;;;;;;;12.73;8.82;;;;;;;;;;4892425;29;20039;-65
2023/07/07 05:53:36;;;;;;;14.68;8.77;;;;;;;;;;4893491;29;20032;-65
2023/07/07 05:56:06;;;;;;;12.50;8.73;;;;;;;;;;4892978;29;20054;-66
2023/07/07 05:58:32;;;;;;;13.13;8.85;;;;;;;;;;4893524;29;20043;-66
2023/07/07 06:00:58;;;;;;;12.85;8.20;;;;;;;;;;4892463;29;20768;-60
2023/07/07 06:03:25;;;;;;;12.10;8.18;;;;;;;;;;4876829;29;20036;-60
2023/07/07 06:05:51;;;;;;;13.63;8.57;;;;;;;;;;4893436;29;20167;-59
2023/07/07 06:08:17;;;;;;;13.35;8.52;;;;;;;;;;4892545;29;20024;-59
2023/07/07 06:10:46;;;;;;;12.63;8.45;;;;;;;;;;4893893;29;20028;-59
2023/07/07 06:13:12;;;;;;;16.45;7.85;;;;;;;;;;4892430;29;20044;-59
2023/07/07 06:15:38;;;;;;;10.48;7.68;;;;;;;;;;4892908;29;20243;-60
2023/07/07 06:18:05;;;;;;;11.45;7.18;;;;;;;;;;4892692;29;20059;-59
2023/07/07 06:20:31;;;;;;;12.48;8.60;;;;;;;;;;4893680;29;20043;-59
2023/07/07 06:22:57;;;;;;;9.93;6.53;;;;;;;;;;4892842;29;20040;-59
2023/07/07 06:25:24;;;;;;;13.85;7.32;;;;;;;;;;4892871;29;20043;-59
2023/07/07 06:27:50;;;;;;;11.15;6.95;;;;;;;;;;4892178;29;20047;-59
2023/07/07 06:30:16;;;;;;;11.50;7.65;;;;;;;;;;4893191;29;20089;-59
2023/07/07 06:32:42;;;;;;;13.82;6.28;;;;;;;;;;4892441;29;20043;-59
2023/07/07 06:35:08;;;;;;;13.02;7.63;;;;;;;;;;4893155;29;20035;-60
2023/07/07 06:37:34;;;;;;;10.65;6.55;;;;;;;;;;4876625;29;20048;-60
2023/07/07 06:40:00;;;;;;;11.50;6.50;;;;;;;;;;4893088;29;20048;-60
2023/07/07 06:42:27;;;;;;;10.85;6.68;;;;;;;;;;4892202;29;20039;-60
2023/07/07 06:44:53;;;;;;;10.70;5.78;;;;;;;;;;4892699;29;20048;-60
2023/07/07 06:47:19;;;;;;;10.25;6.78;;;;;;;;;;4891561;29;20035;-66
2023/07/07 06:49:45;;;;;;;9.00;6.00;;;;;;;;;;4892240;29;20028;-66
2023/07/07 06:52:11;;;;;;;10.48;6.38;;;;;;;;;;4891790;29;20709;-66
2023/07/07 06:54:37;;;;;;;11.48;6.95;;;;;;;;;;4893093;29;22313;-60
2023/07/07 06:57:03;;;;;;;12.18;6.15;;;;;;;;;;4893277;29;20035;-60
2023/07/07 06:59:30;;;;;;;11.32;6.05;;;;;;;;;;4892777;29;20036;-60
2023/07/07 07:01:56;;;;;;;10.65;6.10;;;;;;;;;;4892101;29;20099;-60
2023/07/07 07:04:22;;;;;;;11.73;5.60;;;;;;;;;;4891582;29;20042;-60
2023/07/07 07:06:48;;;;;;;12.80;6.03;;;;;;;;;;4892505;29;20544;-59
2023/07/07 07:09:14;;;;;;;10.20;5.55;;;;;;;;;;4892891;29;20044;-60
2023/07/07 07:11:41;;;;;;;9.88;5.80;;;;;;;;;;4893110;29;20028;-60
2023/07/07 07:14:07;;;;;;;8.07;5.22;;;;;;;;;;4892733;29;20091;-60
2023/07/07 07:16:33;;;;;;;12.35;5.68;;;;;;;;;;4892384;29;21290;-59
2023/07/07 07:18:59;;;;;;;9.43;5.32;;;;;;;;;;4892795;29;21056;-60
2023/07/07 07:21:25;;;;;;;10.07;5.18;;;;;;;;;;4892274;29;20028;-66
2023/07/07 07:23:51;;;;;;;8.35;4.90;;;;;;;;;;4893049;29;20028;-66
2023/07/07 07:26:17;;;;;;;8.60;4.25;;;;;;;;;;4892507;29;20035;-66
2023/07/07 07:28:44;;;;;;;9.38;4.38;;;;;;;;;;4893518;29;20043;-66
2023/07/07 07:31:10;;;;;;;9.55;4.25;;;;;;;;;;4892849;29;20043;-66
2023/07/07 07:33:36;;;;;;;8.55;4.20;;;;;;;;;;4892280;29;20403;-66
2023/07/07 07:36:02;;;;;;;7.30;4.13;;;;;;;;;;4893008;29;20035;-66
2023/07/07 07:38:29;;;;;;;7.65;3.60;;;;;;;;;;4892330;29;20035;-66
2023/07/07 07:40:55;;;;;;;12.18;3.72;;;;;;;;;;4892291;29;20040;-66
2023/07/07 07:43:21;;;;;;;7.18;3.40;;;;;;;;;;4891524;29;20047;-66
2023/07/07 07:45:47;;;;;;;8.07;3.15;;;;;;;;;;4892602;29;20035;-60
2023/07/07 07:48:13;;;;;;;7.30;3.33;;;;;;;;;;4892679;29;20036;-60
2023/07/07 07:50:39;;;;;;;6.10;3.20;;;;;;;;;;4893249;29;20040;-60
2023/07/07 07:53:06;;;;;;;7.38;2.95;;;;;;;;;;4893575;29;20035;-60
2023/07/07 07:55:32;;;;;;;9.68;3.50;;;;;;;;;;4892743;29;20150;-60
2023/07/07 07:57:58;;;;;;;7.28;2.85;;;;;;;;;;4893163;29;20458;-60
2023/07/07 08:00:24;;;;;;;6.72;2.85;;;;;;;;;;4892355;29;20055;-60
2023/07/07 08:02:50;;;;;;;9.55;3.05;;;;;;;;;;4891334;29;20036;-60
2023/07/07 08:05:17;;;;;;;9.38;2.80;;;;;;;;;;4892742;29;20035;-60
2023/07/07 08:07:43;;;;;;;6.72;2.97;;;;;;;;;;4892343;29;20815;-60
2023/07/07 08:10:09;;;;;;;12.10;3.00;;;;;;;;;;4892456;29;20036;-60
2023/07/07 08:12:35;;;;;;;6.43;2.90;;;;;;;;;;4892178;29;20042;-60
2023/07/07 08:15:01;;;;;;;7.13;2.70;;;;;;;;;;4892472;29;20044;-60
2023/07/07 08:17:27;;;;;;;7.18;3.20;;;;;;;;;;4892108;29;20043;-60
2023/07/07 08:19:54;;;;;;;8.50;2.63;;;;;;;;;;4892848;29;20043;-60
2023/07/07 08:22:22;;;;;;;5.22;2.13;;;;;;;;;;4892159;29;20074;-60
2023/07/07 08:24:56;;;;;;;6.75;2.88;;;;;;;;;;4892912;29;20471;-60
2023/07/07 08:27:23;;;;;;;5.72;2.72;;;;;;;;;;4893016;29;20048;-60
2023/07/07 08:29:50;;;;;;;5.57;2.25;;;;;;;;;;4896052;29;20039;-60
2023/07/07 08:32:18;;;;;;;5.63;2.70;;;;;;;;;;4895357;29;20087;-60
2023/07/07 08:34:45;;;;;;;5.70;2.47;;;;;;;;;;4895872;29;20142;-60
2023/07/07 08:37:11;;;;;;;5.30;2.28;;;;;;;;;;4895907;29;20605;-60
2023/07/07 08:39:37;;;;;;;5.00;2.13;;;;;;;;;;4895902;29;20130;-60
2023/07/07 08:42:05;;;;;;;5.60;2.35;;;;;;;;;;4895575;29;20112;-60
2023/07/07 08:44:33;;;;;;;5.82;2.60;;;;;;;;;;4895718;29;20059;-60
2023/07/07 08:47:07;;;;;;;6.55;2.47;;;;;;;;;;4896252;29;20024;-60
2023/07/07 08:49:38;;;;;;;7.45;2.45;;;;;;;;;;4884185;29;20067;-60
2023/07/07 08:52:11;;;;;;;4.90;2.25;;;;;;;;;;4895892;29;20499;-60
2023/07/07 08:54:50;;;;;;;5.40;2.20;;;;;;;;;;4894837;29;21183;-60
2023/07/07 08:57:18;;;;;;;7.65;2.33;;;;;;;;;;4895107;29;20130;-60
2023/07/07 08:59:47;;;;;;;4.28;2.10;;;;;;;;;;4895738;29;20044;-60
2023/07/07 09:02:13;;;;;;;8.00;2.30;;;;;;;;;;4894991;29;20046;-60
2023/07/07 09:04:58;;;;;;;3.88;1.83;;;;;;;;;;4895278;29;20500;-60
2023/07/07 09:07:24;;;;;;;6.03;2.40;;;;;;;;;;4893335;29;20073;-60
2023/07/07 09:10:23;;;;;;;6.15;2.47;;;;;;;;;;4894730;29;21837;-66
2023/07/07 09:12:56;;;;;;;5.93;2.22;;;;;;;;;;4843538;29;21289;-66
2023/07/07 09:15:23;;;;;;;6.10;2.13;;;;;;;;;;4894149;29;20078;-66
2023/07/07 09:17:59;;;;;;;5.93;2.17;;;;;;;;;;4896597;29;21416;-66
2023/07/07 09:20:26;;;;;;;4.22;2.10;;;;;;;;;;4895304;29;20055;-66
2023/07/07 09:22:58;;;;;;;4.85;2.00;;;;;;;;;;4894848;29;20127;-66
2023/07/07 09:25:33;;;;;;;7.72;2.50;;;;;;;;;;4894889;29;20086;-66
2023/07/07 09:28:00;;;;;;;5.68;1.80;;;;;;;;;;4894068;29;20060;-66
2023/07/07 09:30:33;;;;;;;5.95;2.08;;;;;;;;;;4895125;29;20028;-66
2023/07/07 09:33:00;;;;;;;6.85;2.22;;;;;;;;;;4895101;29;20114;-66
2023/07/07 09:35:27;;;;;;;5.85;2.00;;;;;;;;;;4894222;29;20072;-66
2023/07/07 09:38:12;;;;;;;5.30;2.53;;;;;;;;;;4894003;29;20036;-66
2023/07/07 09:40:47;;;;;;;5.70;2.03;;;;;;;;;;4892235;29;20120;-66
2023/07/07 09:43:16;;;;;;;4.93;2.08;;;;;;;;;;4893255;29;20028;-66
2023/07/07 09:45:56;;;;;;;5.93;2.47;;;;;;;;;;4894134;29;20031;-66
2023/07/07 09:48:39;;;;;;;5.38;2.05;;;;;;;;;;4894234;29;20035;-66
2023/07/07 09:51:11;;;;;;;7.10;2.28;;;;;;;;;;4894116;29;20058;-66
2023/07/07 09:53:40;;;;;;;4.18;1.85;;;;;;;;;;4894446;29;21824;-67
2023/07/07 09:56:10;;;;;;;5.07;2.10;;;;;;;;;;4894286;29;20729;-66
2023/07/07 09:58:43;;;;;;;6.25;2.03;;;;;;;;;;4894108;29;20519;-66
2023/07/07 10:01:10;;;;;;;6.68;2.38;;;;;;;;;;4892752;29;20086;-66
2023/07/07 10:03:55;;;;;;;6.82;2.30;;;;;;;;;;4893718;29;20051;-66
2023/07/07 10:06:31;;;;;;;5.40;2.38;;;;;;;;;;4893480;29;21611;-66
2023/07/07 10:08:58;;;;;;;4.38;2.13;;;;;;;;;;4892185;29;20051;-66
2023/07/07 10:11:28;;;;;;;6.93;2.40;;;;;;;;;;4876865;29;20111;-66
2023/07/07 10:13:55;;;;;;;5.90;2.53;;;;;;;;;;4892657;29;20144;-66
2023/07/07 10:16:32;;;;;;;8.25;2.13;;;;;;;;;;4893731;29;20074;-65
2023/07/07 10:18:59;;;;;;;5.63;2.03;;;;;;;;;;4891407;29;20067;-66
2023/07/07 10:21:26;;;;;;;6.22;2.22;;;;;;;;;;4893268;29;20166;-66
2023/07/07 10:23:52;;;;;;;4.75;1.90;;;;;;;;;;4893001;29;20024;-66
2023/07/07 10:26:18;;;;;;;7.25;2.40;;;;;;;;;;4891697;29;20093;-66
2023/07/07 10:28:45;;;;;;;4.65;2.22;;;;;;;;;;4893353;29;21089;-66
2023/07/07 10:31:11;;;;;;;5.75;2.58;;;;;;;;;;4892790;29;20062;-66
2023/07/07 10:33:39;;;;;;;5.75;2.20;;;;;;;;;;4892591;29;20044;-67
2023/07/07 10:36:18;;;;;;;4.95;2.05;;;;;;;;;;4892532;29;20560;-68
2023/07/07 10:38:45;;;;;;;5.28;1.95;;;;;;;;;;4892469;29;20064;-67
2023/07/07 10:41:11;;;;;;;7.57;2.63;;;;;;;;;;4892619;29;20059;-66
2023/07/07 10:43:37;;;;;;;6.10;2.20;;;;;;;;;;4892014;29;20067;-66
2023/07/07 10:46:03;;;;;;;6.53;2.40;;;;;;;;;;4892895;29;20170;-68
2023/07/07 10:48:29;;;;;;;5.50;2.33;;;;;;;;;;4892780;29;20487;-67
2023/07/07 10:51:03;;;;;;;4.18;2.08;;;;;;;;;;4893290;29;20032;-66
2023/07/07 10:53:41;;;;;;;6.13;2.50;;;;;;;;;;4892697;29;21421;-67
2023/07/07 10:56:14;;;;;;;6.22;2.80;;;;;;;;;;4893233;29;20048;-67
2023/07/07 10:58:55;;;;;;;7.10;2.53;;;;;;;;;;4892916;29;20059;-67
2023/07/07 11:01:54;;;;;;;5.70;2.60;;;;;;;;;;4892120;29;20040;-67
2023/07/07 11:04:22;;;;;;;6.43;2.25;;;;;;;;;;4843953;29;20048;-67
2023/07/07 11:06:59;;;;;;;4.43;2.20;;;;;;;;;;4892806;29;20150;-66
2023/07/07 11:09:43;;;;;;;5.57;2.05;;;;;;;;;;4892440;29;20035;-66
2023/07/07 11:12:28;;;;;;;5.13;2.13;;;;;;;;;;4892960;29;21512;-67
2023/07/07 11:14:57;;;;;;;7.63;2.53;;;;;;;;;;4893033;29;20102;-66
2023/07/07 11:17:42;;;;;;;7.00;2.45;;;;;;;;;;4892586;29;20480;-66
2023/07/07 11:20:11;;;;;;;5.65;2.05;;;;;;;;;;4892881;29;20630;-67
2023/07/07 11:22:37;;;;;;;6.03;2.22;;;;;;;;;;4892438;29;20028;-67
2023/07/07 11:25:03;;;;;;;5.22;2.00;;;;;;;;;;4879421;29;21043;-67
2023/07/07 11:27:35;;;;;;;5.00;2.20;;;;;;;;;;4894252;29;20048;-67
2023/07/07 11:30:16;;;;;;;5.95;2.88;;;;;;;;;;4895084;29;20115;-67
2023/07/07 11:32:45;;;;;;;7.18;3.03;;;;;;;;;;4895340;29;20039;-66
2023/07/07 11:35:26;;;;;;;4.30;1.80;;;;;;;;;;4895940;29;20031;-66
2023/07/07 11:38:00;;;;;;;7.35;2.35;;;;;;;;;;4895907;29;20035;-66
2023/07/07 11:40:47;;;;;;;6.88;2.28;;;;;;;;;;4896320;29;20133;-66
2023/07/07 11:43:19;;;;;;;5.93;2.10;;;;;;;;;;4896179;29;20047;-67
2023/07/07 11:46:04;;;;;;;5.78;2.30;;;;;;;;;;4896193;29;20036;-66
2023/07/07 11:48:51;;;;;;;4.93;2.20;;;;;;;;;;4896019;29;20555;-66
2023/07/07 11:51:35;;;;;;;7.53;2.47;;;;;;;;;;4895828;29;20036;-66
2023/07/07 11:54:07;;;;;;;6.78;2.28;;;;;;;;;;4894540;29;20039;-66
2023/07/07 11:56:36;;;;;;;6.05;2.15;;;;;;;;;;4895339;29;20112;-66
2023/07/07 11:59:05;;;;;;;6.18;2.42;;;;;;;;;;4896125;29;20035;-67
2023/07/07 12:01:36;;;;;;;4.82;1.83;;;;;;;;;;4895309;29;20075;-66
2023/07/07 12:04:10;;;;;;;6.63;2.38;;;;;;;;;;4897945;29;20126;-67
2023/07/07 12:06:45;;;;;;;6.00;2.17;;;;;;;;;;4899349;29;20820;-67
2023/07/07 12:09:30;;;;;;;5.25;2.45;;;;;;;;;;4900455;29;20020;-67
2023/07/07 12:12:10;;;;;;;5.97;2.70;;;;;;;;;;4899605;29;20033;-67
2023/07/07 12:14:42;;;;;;;5.10;2.10;;;;;;;;;;4900546;29;20031;-66
2023/07/07 12:17:12;;;;;;;5.23;2.37;;;;;;;;;;4898824;29;20036;-67
2023/07/07 12:19:40;;;;;;;5.78;2.10;;;;;;;;;;4898859;29;20282;-67
2023/07/07 12:22:18;;;;;;;4.55;1.85;;;;;;;;;;4899472;29;20020;-66
2023/07/07 12:25:04;;;;;;;5.10;1.95;;;;;;;;;;4899556;29;20031;-67
2023/07/07 12:27:33;;;;;;;5.65;2.25;;;;;;;;;;4899406;29;20056;-67
2023/07/07 12:30:00;;;;;;;5.72;2.42;;;;;;;;;;4898800;29;20027;-67
2023/07/07 12:32:26;;;;;;;6.18;2.50;;;;;;;;;;4899589;29;20083;-67
2023/07/07 12:35:22;;;;;;;4.45;2.13;;;;;;;;;;4899771;29;21044;-67
2023/07/07 12:37:50;;;;;;;6.53;2.40;;;;;;;;;;4879883;29;20118;-67
2023/07/07 12:40:18;;;;;;;7.30;2.47;;;;;;;;;;4899379;29;20039;-67
2023/07/07 12:42:45;;;;;;;7.05;3.05;;;;;;;;;;4899674;29;20037;-67
2023/07/07 12:45:26;;;;;;;7.90;2.40;;;;;;;;;;4899710;29;20032;-67
2023/07/07 12:48:15;;;;;;;5.85;2.10;;;;;;;;;;4899511;29;20035;-67
2023/07/07 12:50:46;;;;;;;5.40;2.33;;;;;;;;;;4899007;29;20042;-68
2023/07/07 12:53:13;;;;;;;5.63;2.20;;;;;;;;;;4898601;29;20031;-67
2023/07/07 12:55:57;;;;;;;4.72;2.08;;;;;;;;;;4898700;29;20047;-67
2023/07/07 12:58:23;;;;;;;5.53;2.30;;;;;;;;;;4898450;29;21942;-67
2023/07/07 13:01:04;;;;;;;5.00;2.28;;;;;;;;;;4898442;29;21047;-67
2023/07/07 13:03:30;;;;;;;5.43;2.45;;;;;;;;;;4899058;29;20043;-67
2023/07/07 13:05:57;;;;;;;5.38;2.35;;;;;;;;;;4898394;29;20036;-67
2023/07/07 13:08:39;;;;;;;6.40;2.22;;;;;;;;;;4898505;29;21803;-68
2023/07/07 13:11:07;;;;;;;6.35;2.22;;;;;;;;;;4898735;29;20114;-68
2023/07/07 13:13:37;;;;;;;6.55;2.10;;;;;;;;;;4898548;29;20040;-67
2023/07/07 13:16:04;;;;;;;4.75;2.30;;;;;;;;;;4896863;29;20067;-67
2023/07/07 13:18:30;;;;;;;4.43;2.38;;;;;;;;;;4896003;29;20032;-67
2023/07/07 13:20:58;;;;;;;5.82;2.58;;;;;;;;;;4897747;29;20064;-67
2023/07/07 13:23:28;;;;;;;7.50;2.45;;;;;;;;;;4897696;29;20048;-67
2023/07/07 13:25:54;;;;;;;5.40;2.10;;;;;;;;;;4897507;29;20043;-67
2023/07/07 13:28:23;;;;;;;7.13;2.53;;;;;;;;;;4897625;29;20052;-67
2023/07/07 13:30:53;;;;;;;5.65;2.22;;;;;;;;;;4897912;29;20040;-67
2023/07/07 13:33:19;;;;;;;5.30;2.13;;;;;;;;;;4898491;29;20032;-68
2023/07/07 13:35:50;;;;;;;6.45;2.72;;;;;;;;;;4897896;29;20043;-68
2023/07/07 13:38:22;;;;;;;5.13;2.85;;;;;;;;;;4897826;29;20039;-68
2023/07/07 13:40:48;;;;;;;5.90;2.75;;;;;;;;;;4897697;29;20028;-67
2023/07/07 13:43:25;;;;;;;7.43;2.60;;;;;;;;;;4898054;29;20031;-67
2023/07/07 13:45:54;;;;;;;6.40;2.20;;;;;;;;;;4898453;29;20042;-67
2023/07/07 13:48:21;;;;;;;6.18;2.38;;;;;;;;;;4898326;29;20667;-67
2023/07/07 13:50:47;;;;;;;6.30;2.47;;;;;;;;;;4898767;29;20071;-67
2023/07/07 13:53:13;;;;;;;8.25;2.42;;;;;;;;;;4881716;29;20083;-67
2023/07/07 13:55:42;;;;;;;6.15;2.30;;;;;;;;;;4898070;29;20039;-68
2023/07/07 13:58:13;;;;;;;4.90;2.20;;;;;;;;;;4898267;29;20043;-67
2023/07/07 14:00:39;;;;;;;5.60;2.40;;;;;;;;;;4897532;29;20810;-67
2023/07/07 14:03:07;;;;;;;7.35;2.40;;;;;;;;;;4897198;29;20044;-67
2023/07/07 14:05:34;;;;;;;5.63;2.45;;;;;;;;;;4897777;29;20030;-67
2023/07/07 14:08:27;;;;;;;5.15;1.98;;;;;;;;;;4897875;29;20047;-67
2023/07/07 14:10:55;;;;;;;5.65;2.40;;;;;;;;;;4893871;29;20596;-67
2023/07/07 14:13:29;;;;;;;4.70;2.20;;;;;;;;;;4898623;29;20051;-67
2023/07/07 14:15:55;;;;;;;16.45;2.67;;;;;;;;;;4898992;29;20539;-67
2023/07/07 14:18:24;;;;;;;5.18;2.40;;;;;;;;;;4897649;29;20039;-67
2023/07/07 14:20:50;;;;;;;6.20;2.35;;;;;;;;;;4898066;29;20064;-67
2023/07/07 14:23:17;;;;;;;5.70;2.63;;;;;;;;;;4897439;29;20080;-67
2023/07/07 14:25:45;;;;;;;4.63;2.55;;;;;;;;;;4897128;29;20032;-67
2023/07/07 14:28:18;;;;;;;6.70;3.05;;;;;;;;;;4896539;29;20047;-67
2023/07/07 14:30:44;;;;;;;;;;;;;;;;;;4898229;29;20057;-67
2023/07/07 14:33:10;;;;;;;4.40;1.90;;;;;;;;;;4897263;29;20452;-66
2023/07/07 14:35:40;;;;;;;6.13;2.28;;;;;;;;;;4897542;29;20102;-67
2023/07/07 14:38:23;;;;;;;5.22;2.35;;;;;;;;;;4896785;29;20031;-67
2023/07/07 14:40:49;;;;;;;;;;;;;;;;;;4897372;29;20655;-67
2023/07/07 14:43:38;;;;;;;6.80;2.50;;;;;;;;;;4897814;29;19918;-67
2023/07/07 14:46:05;;;;;;;5.13;2.58;;;;;;;;;;4896867;29;20217;-67
2023/07/07 14:48:44;;;;;;;4.82;2.33;;;;;;;;;;4896981;29;20028;-67
2023/07/07 14:51:10;;;;;;;7.45;2.58;;;;;;;;;;4897478;29;20067;-66
2023/07/07 14:53:36;;;;;;;5.78;2.38;;;;;;;;;;4897118;29;20040;-66